createdAt,value
2018-08-12T00:00:55.044Z,55.50
2018-08-12T00:03:24.193Z,56.00
2018-08-12T00:05:54.886Z,55.77
2018-08-12T00:08:23.776Z,56.00
2018-08-12T00:10:55.372Z,56.42
2018-08-12T00:13:24.257Z,56.19
2018-08-12T00:15:54.065Z,55.87
2018-08-12T00:18:24.761Z,56.47
2018-08-12T00:20:53.604Z,55.33
2018-08-12T00:23:22.500Z,55.49
2018-08-12T00:25:51.843Z,55.93
2018-08-12T00:28:20.809Z,57.04
2018-08-12T00:30:52.297Z,55.68
2018-08-12T00:33:22.136Z,55.51
2018-08-12T00:35:51.493Z,56.23
2018-08-12T00:38:20.529Z,56.92
2018-08-12T00:40:50.924Z,56.93
2018-08-12T00:43:19.872Z,56.37
2018-08-12T00:45:49.425Z,56.55
2018-08-12T00:48:18.276Z,57.35
2018-08-12T00:50:48.173Z,57.62
2018-08-12T00:53:17.052Z,56.93
2018-08-12T00:55:49.536Z,56.85
2018-08-12T00:58:18.993Z,57.69
2018-08-12T01:00:49.073Z,57.51
2018-08-12T01:03:17.925Z,57.29
2018-08-12T01:05:47.593Z,57.77
2018-08-12T01:08:17.079Z,57.36
2018-08-12T01:10:47.154Z,56.90
2018-08-12T01:13:17.203Z,57.34
2018-08-12T01:15:47.925Z,58.13
2018-08-12T01:18:17.724Z,58.04
2018-08-12T01:20:48.397Z,57.96
2018-08-12T01:23:17.807Z,58.36
2018-08-12T01:25:47.804Z,57.49
2018-08-12T01:28:17.319Z,57.52
2018-08-12T01:30:46.199Z,57.49
2018-08-12T01:33:16.028Z,58.21
2018-08-12T01:35:47.827Z,58.80
2018-08-12T01:38:16.745Z,59.08
2018-08-12T01:40:45.588Z,58.56
2018-08-12T01:43:16.810Z,58.81
2018-08-12T01:45:45.749Z,58.54
2018-08-12T01:48:16.097Z,58.46
2018-08-12T01:50:45.256Z,57.98
2018-08-12T01:53:14.044Z,58.10
2018-08-12T01:55:44.064Z,58.40
2018-08-12T01:58:13.432Z,59.30
2018-08-12T02:00:42.642Z,58.40
2018-08-12T02:03:12.329Z,58.99
2018-08-12T02:05:48.887Z,58.69
2018-08-12T02:08:17.789Z,59.14
2018-08-12T02:10:46.606Z,59.57
2018-08-12T02:13:15.436Z,58.67
2018-08-12T02:15:44.916Z,58.22
2018-08-12T02:18:15.546Z,58.53
2018-08-12T02:20:44.400Z,58.69
2018-08-12T02:23:13.258Z,58.55
2018-08-12T02:25:42.855Z,58.93
2018-08-12T02:28:11.704Z,59.59
2018-08-12T02:30:42.385Z,60.48
2018-08-12T02:33:11.661Z,59.61
2018-08-12T02:35:40.565Z,59.35
2018-08-12T02:38:09.408Z,58.73
2018-08-12T02:40:38.752Z,59.06
2018-08-12T02:43:07.662Z,59.49
2018-08-12T02:45:37.745Z,60.00
2018-08-12T02:48:06.887Z,60.46
2018-08-12T02:50:36.166Z,59.72
2018-08-12T02:53:05.062Z,60.17
2018-08-12T02:55:33.952Z,60.62
2018-08-12T02:58:02.897Z,59.97
2018-08-12T03:00:32.049Z,60.59
2018-08-12T03:03:00.964Z,59.67
2018-08-12T03:05:30.833Z,60.95
2018-08-12T03:07:59.801Z,60.55
2018-08-12T03:10:28.680Z,59.88
2018-08-12T03:12:57.587Z,60.15
2018-08-12T03:15:26.454Z,60.58
2018-08-12T03:17:55.352Z,60.12
2018-08-12T03:20:24.196Z,60.19
2018-08-12T03:22:52.994Z,60.12
2018-08-12T03:25:22.172Z,60.59
2018-08-12T03:27:51.056Z,60.42
2018-08-12T03:30:20.978Z,60.07
2018-08-12T03:32:49.795Z,59.35
2018-08-12T03:35:20.237Z,60.81
2018-08-12T03:37:49.295Z,60.86
2018-08-12T03:40:18.253Z,60.52
2018-08-12T03:42:47.053Z,60.86
2018-08-12T03:45:16.217Z,60.15
2018-08-12T03:47:45.046Z,60.68
2018-08-12T03:50:13.925Z,59.50
2018-08-12T03:52:42.872Z,59.57
2018-08-12T03:55:12.205Z,59.92
2018-08-12T03:57:41.057Z,59.95
2018-08-12T04:00:17.104Z,59.97
2018-08-12T04:02:48.025Z,60.30
2018-08-12T04:05:17.122Z,59.56
2018-08-12T04:07:46.256Z,59.26
2018-08-12T04:10:15.125Z,59.83
2018-08-12T04:12:43.963Z,60.28
2018-08-12T04:15:13.104Z,59.20
2018-08-12T04:17:43.031Z,59.81
2018-08-12T04:20:12.424Z,59.48
2018-08-12T04:22:41.297Z,59.30
2018-08-12T04:25:10.156Z,59.99
2018-08-12T04:27:39.006Z,59.60
2018-08-12T04:30:10.356Z,58.97
2018-08-12T04:32:43.536Z,59.40
2018-08-12T04:35:12.425Z,59.71
2018-08-12T04:37:41.254Z,59.34
2018-08-12T04:40:10.120Z,59.37
2018-08-12T04:42:38.983Z,58.55
2018-08-12T04:45:07.978Z,58.77
2018-08-12T04:47:37.597Z,58.36
2018-08-12T04:50:07.069Z,58.40
2018-08-12T04:52:37.212Z,58.01
2018-08-12T04:55:06.472Z,58.18
2018-08-12T04:57:35.363Z,58.13
2018-08-12T05:00:04.299Z,57.53
2018-08-12T05:02:33.110Z,57.44
2018-08-12T05:05:02.480Z,56.25
2018-08-12T05:07:31.465Z,54.39
2018-08-12T05:10:00.346Z,55.14
2018-08-12T05:12:29.514Z,54.40
2018-08-12T05:14:58.323Z,52.67
2018-08-12T05:17:27.141Z,52.62
2018-08-12T05:19:56.034Z,51.13
2018-08-12T05:22:26.608Z,50.35
2018-08-12T05:24:55.515Z,50.06
2018-08-12T05:27:24.445Z,49.45
2018-08-12T05:29:53.331Z,49.16
2018-08-12T05:32:22.141Z,48.97
2018-08-12T05:34:51.349Z,47.38
2018-08-12T05:37:20.184Z,47.15
2018-08-12T05:39:49.165Z,46.76
2018-08-12T05:42:20.978Z,46.11
2018-08-12T05:44:49.833Z,45.28
2018-08-12T05:47:18.624Z,44.81
2018-08-12T05:49:48.089Z,44.75
2018-08-12T05:52:16.928Z,43.81
2018-08-12T05:54:45.774Z,44.04
2018-08-12T05:57:15.008Z,43.37
2018-08-12T05:59:45.018Z,43.04
2018-08-12T06:02:13.961Z,41.84
2018-08-12T06:04:42.828Z,42.07
2018-08-12T06:07:13.420Z,40.99
2018-08-12T06:09:42.375Z,40.86
2018-08-12T06:12:11.372Z,41.45
2018-08-12T06:14:40.678Z,40.05
2018-08-12T06:17:09.947Z,40.78
2018-08-12T06:19:38.901Z,39.86
2018-08-12T06:22:07.780Z,39.85
2018-08-12T06:24:36.603Z,39.22
2018-08-12T06:27:05.517Z,40.07
2018-08-12T06:29:35.206Z,40.60
2018-08-12T06:32:04.526Z,39.87
2018-08-12T06:34:33.452Z,39.49
2018-08-12T06:37:03.220Z,39.46
2018-08-12T06:39:33.847Z,39.18
2018-08-12T06:42:03.254Z,39.62
2018-08-12T06:44:32.124Z,38.47
2018-08-12T06:47:01.573Z,38.08
2018-08-12T06:49:31.132Z,37.05
2018-08-12T06:51:59.991Z,36.59
2018-08-12T06:54:28.830Z,36.81
2018-08-12T06:56:58.127Z,37.13
2018-08-12T06:59:28.305Z,38.43
2018-08-12T07:01:58.697Z,36.52
2018-08-12T07:04:28.306Z,36.98
2018-08-12T07:06:58.481Z,36.51
2018-08-12T07:09:29.748Z,38.35
2018-08-12T07:12:02.418Z,36.57
2018-08-12T07:14:32.859Z,35.68
2018-08-12T07:17:01.709Z,36.13
2018-08-12T07:19:31.889Z,36.31
2018-08-12T07:22:00.754Z,35.66
2018-08-12T07:24:29.595Z,35.37
2018-08-12T07:26:59.701Z,35.83
2018-08-12T07:29:28.558Z,36.34
2018-08-12T07:31:57.483Z,37.11
2018-08-12T07:34:26.362Z,37.04
2018-08-12T07:36:56.775Z,35.46
2018-08-12T07:39:25.650Z,36.31
2018-08-12T07:41:54.450Z,35.77
2018-08-12T07:44:23.392Z,36.64
2018-08-12T07:46:52.291Z,36.88
2018-08-12T07:49:21.577Z,35.74
2018-08-12T07:51:50.416Z,36.51
2018-08-12T07:54:19.350Z,37.00
2018-08-12T07:56:48.943Z,34.99
2018-08-12T07:59:17.824Z,35.25
2018-08-12T08:01:47.496Z,34.91
2018-08-12T08:04:17.784Z,34.45
2018-08-12T08:06:46.629Z,35.48
2018-08-12T08:09:15.553Z,34.79
2018-08-12T08:11:44.511Z,35.26
2018-08-12T08:14:14.294Z,34.42
2018-08-12T08:16:43.164Z,34.00
2018-08-12T08:19:12.078Z,34.87
2018-08-12T08:21:41.489Z,34.17
2018-08-12T08:24:10.431Z,33.86
2018-08-12T08:26:43.090Z,35.16
2018-08-12T08:29:11.949Z,34.25
2018-08-12T08:31:41.873Z,33.21
2018-08-12T08:34:12.616Z,33.85
2018-08-12T08:36:42.230Z,33.99
2018-08-12T08:39:13.328Z,33.26
2018-08-12T08:41:44.036Z,33.29
2018-08-12T08:44:13.198Z,33.64
2018-08-12T08:51:43.493Z,34.16
2018-08-12T08:54:12.354Z,33.16
2018-08-12T08:56:41.741Z,33.90
2018-08-12T08:59:11.226Z,34.56
2018-08-12T09:01:40.212Z,34.20
2018-08-12T09:04:09.127Z,32.96
2018-08-12T09:06:38.988Z,33.84
2018-08-12T09:09:14.102Z,34.22
2018-08-12T09:11:43.595Z,33.19
2018-08-12T09:14:14.777Z,33.77
2018-08-12T09:16:46.315Z,32.19
2018-08-12T09:19:15.704Z,32.96
2018-08-12T09:21:45.610Z,33.40
2018-08-12T09:24:15.824Z,33.38
2018-08-12T09:26:46.218Z,32.77
2018-08-12T09:29:16.296Z,33.86
2018-08-12T09:31:47.340Z,33.67
2018-08-12T09:34:17.773Z,34.66
2018-08-12T09:37:04.410Z,32.95
2018-08-12T09:39:33.355Z,33.21
2018-08-12T09:42:02.300Z,33.89
2018-08-12T09:44:31.275Z,33.78
2018-08-12T09:47:00.785Z,33.39
2018-08-12T09:49:30.476Z,33.48
2018-08-12T09:52:00.732Z,33.69
2018-08-12T09:54:30.819Z,34.21
2018-08-12T09:57:02.288Z,32.52
2018-08-12T09:59:33.402Z,32.79
2018-08-12T10:02:02.798Z,32.83
2018-08-12T10:04:32.568Z,32.82
2018-08-12T10:07:02.412Z,32.78
2018-08-12T10:09:32.166Z,32.56
2018-08-12T10:12:01.616Z,32.96
2018-08-12T10:14:30.594Z,32.41
2018-08-12T10:16:59.515Z,32.31
2018-08-12T10:19:29.025Z,33.38
2018-08-12T10:21:58.540Z,32.90
2018-08-12T10:24:27.389Z,32.70
2018-08-12T10:27:01.750Z,32.79
2018-08-12T10:29:31.380Z,32.35
2018-08-12T10:32:00.261Z,32.95
2018-08-12T10:34:30.472Z,32.54
2018-08-12T10:36:59.821Z,32.47
2018-08-12T10:39:29.625Z,31.96
2018-08-12T10:41:59.971Z,33.07
2018-08-12T10:44:28.865Z,32.93
2018-08-12T10:46:57.792Z,30.94
2018-08-12T10:49:27.472Z,30.67
2018-08-12T10:51:56.797Z,31.35
2018-08-12T10:54:26.688Z,31.78
2018-08-12T10:57:02.201Z,31.74
2018-08-12T10:59:32.291Z,32.15
2018-08-12T11:02:02.521Z,32.17
2018-08-12T11:04:35.856Z,31.71
2018-08-12T11:07:05.751Z,32.25
2018-08-12T11:09:34.753Z,31.90
2018-08-12T11:12:05.459Z,31.04
2018-08-12T11:15:03.261Z,31.52
2018-08-12T11:17:32.240Z,30.03
2018-08-12T11:20:01.191Z,30.40
2018-08-12T11:22:31.437Z,29.97
2018-08-12T11:25:00.825Z,30.79
2018-08-12T11:27:31.372Z,30.15
2018-08-12T11:30:00.963Z,30.10
2018-08-12T11:32:29.959Z,30.58
2018-08-12T11:35:00.205Z,29.52
2018-08-12T11:37:30.377Z,30.26
2018-08-12T11:40:00.214Z,29.66
2018-08-12T11:42:29.661Z,28.63
2018-08-12T11:45:00.437Z,28.74
2018-08-12T11:47:29.337Z,29.38
2018-08-12T11:49:58.477Z,28.45
2018-08-12T11:52:28.778Z,28.99
2018-08-12T11:54:58.380Z,29.40
2018-08-12T11:57:27.973Z,30.72
2018-08-12T12:00:00.318Z,29.06
2018-08-12T12:02:31.173Z,30.00
2018-08-12T12:05:09.189Z,30.11
2018-08-12T12:07:40.623Z,30.39
2018-08-12T12:10:13.136Z,29.29
2018-08-12T12:12:45.012Z,29.13
2018-08-12T12:15:37.667Z,28.56
2018-08-12T12:18:06.561Z,29.91
2018-08-12T12:20:36.592Z,29.25
2018-08-12T12:23:07.095Z,28.93
2018-08-12T12:25:38.676Z,29.91
2018-08-12T12:28:07.615Z,29.63
2018-08-12T12:30:36.460Z,30.76
2018-08-12T12:33:05.326Z,30.92
2018-08-12T12:35:34.510Z,30.04
2018-08-12T12:38:05.483Z,31.23
2018-08-12T12:40:34.645Z,31.02
2018-08-12T12:43:06.153Z,29.93
2018-08-12T12:45:36.467Z,29.78
2018-08-12T12:48:07.194Z,29.70
2018-08-12T12:50:36.104Z,29.67
2018-08-12T12:53:18.505Z,30.47
2018-08-12T12:55:48.096Z,30.56
2018-08-12T12:58:18.702Z,29.47
2018-08-12T13:00:48.203Z,30.60
2018-08-12T13:03:31.532Z,31.17
2018-08-12T13:06:01.185Z,30.48
2018-08-12T13:08:31.009Z,30.37
2018-08-12T13:11:02.813Z,30.62
2018-08-12T13:13:34.403Z,31.85
2018-08-12T13:16:07.160Z,30.41
2018-08-12T13:18:37.301Z,30.78
2018-08-12T13:21:08.620Z,30.43
2018-08-12T13:23:39.319Z,29.68
2018-08-12T13:26:10.457Z,30.10
2018-08-12T13:28:39.350Z,30.21
2018-08-12T13:31:08.863Z,30.80
2018-08-12T13:33:37.730Z,30.21
2018-08-12T13:36:10.660Z,29.21
2018-08-12T13:38:41.217Z,29.87
2018-08-12T13:41:10.660Z,30.09
2018-08-12T13:43:40.524Z,29.19
2018-08-12T13:46:16.472Z,30.75
2018-08-12T13:48:46.834Z,30.27
2018-08-12T13:51:18.324Z,29.07
2018-08-12T13:53:47.214Z,28.78
2018-08-12T13:56:39.067Z,28.86
2018-08-12T13:59:09.451Z,27.59
2018-08-12T14:01:38.350Z,27.85
2018-08-12T14:04:09.490Z,26.90
2018-08-12T14:06:40.553Z,27.85
2018-08-12T14:09:11.402Z,27.58
2018-08-12T14:11:43.444Z,26.59
2018-08-12T14:14:12.334Z,26.78
2018-08-12T14:16:46.604Z,27.31
2018-08-12T14:19:19.814Z,25.90
2018-08-12T14:21:49.587Z,26.73
2018-08-12T14:24:33.252Z,25.87
2018-08-12T14:27:03.100Z,26.11
2018-08-12T14:29:34.149Z,26.48
2018-08-12T14:32:05.268Z,26.17
2018-08-12T14:34:34.627Z,24.96
2018-08-12T14:37:03.472Z,25.79
2018-08-12T14:39:35.180Z,25.22
2018-08-12T14:42:04.686Z,24.33
2018-08-12T14:44:33.639Z,24.52
2018-08-12T14:47:03.509Z,24.64
2018-08-12T14:49:34.097Z,24.29
2018-08-12T14:52:05.493Z,24.10
2018-08-12T14:54:35.313Z,23.87
2018-08-12T14:57:05.573Z,23.92
2018-08-12T14:59:34.926Z,23.85
2018-08-12T15:02:04.908Z,23.19
2018-08-12T15:04:34.514Z,23.54
2018-08-12T15:07:04.747Z,23.67
2018-08-12T15:09:33.677Z,24.16
2018-08-12T15:12:03.296Z,23.45
2018-08-12T15:14:32.131Z,23.39
2018-08-12T15:17:04.722Z,24.33
2018-08-12T15:19:33.731Z,24.19
2018-08-12T15:22:03.815Z,24.06
2018-08-12T15:24:35.000Z,24.29
2018-08-12T15:27:03.917Z,23.74
2018-08-12T15:29:35.234Z,24.16
2018-08-12T15:32:06.252Z,24.20
2018-08-12T15:34:35.687Z,24.42
2018-08-12T15:37:09.713Z,25.33
2018-08-12T15:39:38.578Z,24.44
2018-08-12T15:42:08.306Z,24.93
2018-08-12T15:44:37.165Z,24.22
2018-08-12T15:47:09.259Z,24.41
2018-08-12T15:49:38.165Z,24.64
2018-08-12T15:52:09.234Z,24.89
2018-08-12T15:54:38.292Z,24.14
2018-08-12T15:57:09.801Z,23.68
2018-08-12T15:59:41.231Z,24.92
2018-08-12T16:02:10.171Z,24.70
2018-08-12T16:04:39.816Z,24.73
2018-08-12T16:07:11.447Z,24.48
2018-08-12T16:09:40.369Z,24.53
2018-08-12T16:12:10.167Z,25.56
2018-08-12T16:14:39.223Z,25.19
2018-08-12T16:17:08.365Z,24.41
2018-08-12T16:19:38.836Z,25.53
2018-08-12T16:22:08.283Z,25.54
2018-08-12T16:24:37.910Z,25.57
2018-08-12T16:27:07.785Z,25.36
2018-08-12T16:29:38.849Z,25.59
2018-08-12T16:32:09.564Z,25.93
2018-08-12T16:34:38.336Z,25.63
2018-08-12T16:37:07.221Z,26.02
2018-08-12T16:39:36.602Z,26.51
2018-08-12T16:42:05.516Z,25.92
2018-08-12T16:44:34.377Z,26.62
2018-08-12T16:47:03.284Z,26.73
2018-08-12T16:49:32.361Z,25.73
2018-08-12T16:52:02.191Z,26.08
2018-08-12T16:54:31.366Z,26.54
2018-08-12T16:57:02.613Z,26.08
2018-08-12T16:59:32.425Z,26.09
2018-08-12T17:02:01.361Z,26.57
2018-08-12T17:04:30.423Z,26.88
2018-08-12T17:07:00.744Z,28.52
2018-08-12T17:09:32.603Z,28.78
2018-08-12T17:12:02.299Z,28.14
2018-08-12T17:14:32.089Z,28.33
2018-08-12T17:17:04.037Z,27.63
2018-08-12T17:19:33.804Z,28.00
2018-08-12T17:22:06.643Z,28.16
2018-08-12T17:24:36.829Z,27.31
2018-08-12T17:27:06.301Z,28.37
2018-08-12T17:29:35.225Z,28.60
2018-08-12T17:32:04.191Z,29.69
2018-08-12T17:34:33.015Z,30.98
2018-08-12T17:37:02.900Z,29.10
2018-08-12T17:39:31.820Z,29.45
2018-08-12T17:42:01.250Z,32.03
2018-08-12T17:44:30.615Z,32.25
2018-08-12T17:47:00.388Z,31.25
2018-08-12T17:49:29.285Z,32.22
2018-08-12T17:51:59.290Z,32.18
2018-08-12T17:54:28.168Z,32.29
2018-08-12T17:56:59.321Z,33.31
2018-08-12T17:59:28.251Z,32.75
2018-08-12T18:01:57.142Z,34.42
2018-08-12T18:04:26.085Z,34.20
2018-08-12T18:06:55.997Z,33.72
2018-08-12T18:21:27.020Z,35.63
2018-08-12T18:23:56.875Z,34.89
2018-08-12T18:26:27.172Z,36.05
2018-08-12T18:28:59.775Z,36.75
2018-08-12T18:31:31.697Z,36.83
2018-08-12T18:34:02.352Z,37.28
2018-08-12T18:36:32.225Z,37.37
2018-08-12T18:39:04.412Z,36.85
2018-08-12T18:41:36.685Z,38.72
2018-08-12T18:44:08.068Z,38.60
2018-08-12T18:46:38.311Z,39.45
2018-08-12T18:49:08.148Z,39.69
2018-08-12T18:51:39.365Z,39.58
2018-08-12T18:54:11.563Z,39.79
2018-08-12T18:56:42.576Z,40.10
2018-08-12T18:59:12.648Z,39.55
2018-08-12T19:01:43.524Z,39.77
2018-08-12T19:04:13.730Z,41.42
2018-08-12T19:06:44.153Z,39.92
2018-08-12T19:09:14.291Z,40.09
2018-08-12T19:11:46.076Z,39.95
2018-08-12T19:14:18.283Z,42.43
2018-08-12T19:16:48.200Z,42.08
2018-08-12T19:19:21.388Z,41.75
2018-08-12T19:21:53.273Z,41.35
2018-08-12T19:24:23.157Z,42.55
2018-08-12T19:31:59.819Z,41.85
2018-08-12T19:34:32.449Z,42.08
2018-08-12T19:37:06.542Z,42.94
2018-08-12T19:39:37.594Z,42.32
2018-08-12T19:42:08.713Z,43.57
2018-08-12T19:44:39.142Z,43.74
2018-08-12T19:47:10.062Z,43.47
2018-08-12T19:49:42.487Z,45.05
2018-08-12T19:52:14.287Z,45.68
2018-08-12T19:54:44.196Z,45.07
2018-08-12T19:57:18.574Z,45.17
2018-08-12T19:59:50.929Z,44.96
2018-08-12T20:02:22.483Z,44.99
2018-08-12T20:04:53.571Z,45.28
2018-08-12T20:07:25.968Z,45.67
2018-08-12T20:09:57.853Z,45.50
2018-08-12T20:12:29.650Z,44.83
2018-08-12T20:15:00.440Z,45.30
2018-08-12T20:17:32.275Z,45.61
2018-08-12T20:20:02.120Z,46.38
2018-08-12T20:22:34.650Z,46.12
2018-08-12T20:25:06.754Z,45.48
2018-08-12T20:27:37.232Z,45.98
2018-08-12T20:30:11.133Z,47.50
2018-08-12T20:32:46.589Z,45.99
2018-08-12T20:35:17.329Z,46.27
2018-08-12T20:37:47.280Z,47.27
2018-08-12T20:40:17.589Z,47.37
2018-08-12T20:42:47.441Z,47.44
2018-08-12T20:45:18.119Z,47.30
2018-08-12T20:47:48.812Z,46.85
2018-08-12T20:50:19.602Z,47.64
2018-08-12T20:52:53.426Z,47.21
2018-08-12T20:55:25.284Z,47.44
2018-08-12T20:57:56.273Z,48.12
2018-08-12T21:00:26.920Z,47.09
2018-08-12T21:02:57.421Z,47.10
2018-08-12T21:05:27.775Z,47.74
2018-08-12T21:07:57.659Z,47.78
2018-08-12T21:10:30.164Z,47.85
2018-08-12T21:13:02.007Z,48.63
2018-08-12T21:15:32.436Z,48.10
2018-08-12T21:18:05.554Z,48.80
2018-08-12T21:20:35.449Z,48.65
2018-08-12T21:23:06.408Z,48.71
2018-08-12T21:25:36.267Z,49.59
2018-08-12T21:28:08.144Z,49.77
2018-08-12T21:30:38.007Z,50.24
2018-08-12T21:33:07.905Z,48.97
2018-08-12T21:35:38.311Z,49.36
2018-08-12T21:38:09.595Z,49.35
2018-08-12T21:40:41.164Z,49.08
2018-08-12T21:43:11.572Z,49.37
2018-08-12T21:45:42.465Z,50.81
2018-08-12T21:48:12.293Z,50.90
2018-08-12T21:50:42.749Z,50.19
2018-08-12T21:53:13.227Z,50.08
2018-08-12T21:55:43.468Z,51.65
2018-08-12T21:58:14.608Z,50.91
2018-08-12T22:00:47.316Z,50.04
2018-08-12T22:03:48.253Z,51.13
2018-08-12T22:06:20.425Z,50.38
2018-08-12T22:08:51.309Z,51.58
2018-08-12T22:11:21.649Z,50.32
2018-08-12T22:13:52.081Z,50.60
2018-08-12T22:16:21.865Z,50.78
2018-08-12T22:18:52.687Z,51.04
2018-08-12T22:21:24.263Z,50.80
2018-08-12T22:23:54.216Z,51.01
2018-08-12T22:26:26.076Z,50.85
2018-08-12T22:28:55.933Z,51.18
2018-08-12T22:31:26.658Z,50.31
2018-08-12T22:33:56.589Z,51.32
2018-08-12T22:36:26.506Z,50.90
2018-08-12T22:38:57.369Z,50.75
2018-08-12T22:41:32.314Z,49.69
2018-08-12T22:44:04.304Z,49.04
2018-08-12T22:46:36.216Z,48.39
2018-08-12T22:49:06.806Z,48.85
2018-08-12T22:51:37.720Z,48.93
2018-08-12T22:54:09.563Z,48.56
2018-08-12T22:56:40.870Z,48.12
2018-08-12T22:59:11.445Z,47.99
2018-08-12T23:01:42.085Z,47.21
2018-08-12T23:04:13.204Z,46.74
2018-08-12T23:06:44.542Z,46.93
2018-08-12T23:09:16.383Z,46.55
2018-08-12T23:11:46.830Z,46.40
2018-08-12T23:14:19.385Z,46.19
2018-08-12T23:16:56.005Z,46.88
2018-08-12T23:19:29.114Z,46.23
2018-08-12T23:22:00.401Z,45.58
2018-08-12T23:24:30.228Z,46.59
2018-08-12T23:27:00.941Z,45.71
2018-08-12T23:29:31.228Z,45.43
2018-08-12T23:32:02.036Z,45.76
2018-08-12T23:34:31.895Z,46.64
2018-08-12T23:37:02.079Z,47.21
2018-08-12T23:39:31.958Z,46.82
2018-08-12T23:42:01.956Z,47.27
2018-08-12T23:44:32.332Z,47.38
2018-08-12T23:47:02.159Z,47.70
2018-08-12T23:49:33.672Z,47.73
2018-08-12T23:52:03.548Z,47.04
2018-08-12T23:54:33.382Z,47.44
2018-08-12T23:57:03.236Z,47.47
2018-08-12T23:59:34.268Z,46.66
